Huvudsida
METAR-TAF:

METAR-TAF

Flygplatser :

Greater Natal International Airport

Natal, Rio Grande do Norte, Brasilien

latitud: 05-46-05S, longitud: 035-22-34W, höjd: 88 m

Aktuellt väderrapport

Denna rapport gjordes för 29 minuter sedan, klockan 17:00 UTC
Vind 12 kt från syd/sydost
Temperatur 31°C
Fuktighet 66%
Tryck 1012 hPa
Sikt 10 km eller mer
Få moln på en höjd av 3200 ft

METAR: SBSG 161700Z 15012KT 9999 FEW032 31/24 Q1012

Tid: 14:29 (17:29 UTC)

Väderprognos

Denna rapport gjordes för 7 timmar och 29 minuter sedan, klockan 10:00 UTC
Prognos gäller från 16 kl. 12 UTC till 17 kl. 12 UTC
Vind 12 kt från syd/sydost
Sikt: 8000 m
Brutna moln på en höjd av 2200 ft
Blir
från 16 kl. 22 UTC till 16 kl. 23 UTC
Vind 6 kt från syd
Blir
från 17 kl. 03 UTC till 17 kl. 04 UTC
Vind 5 kt från syd/sydväst

TAF: SBSG 161000Z 1612/1712 16012KT 8000 BKN022 TX30/1615Z TN24/1707Z BECMG 1622/1623 18006KT BECMG 1703/1704 21005KT RMK PEU

Aktuella väderrapporter och prognoser från 4000 flygplatser (METAR- och TAF-rapporter).

De tillgängliga stationerna syns som gula och röda prickar på kartan.

För musen över prickarna för att se namnen på stationerna.

Klicka sedan för att få väderrapporter och prognoser.

För att ändra kartan: Klicka på de gröna knapparna med ett svart kors på för att zooma in; den gröna knappen med ett streck på för att zooma ut; eller på de gröna pilarna för angränsande kartor.


METAR-TAF: